Time;durP1;ratioP1;P1;durP2;ratioP2;P2;SDS_P1;SDS_P2;PMS_P1;PMS_P2;Temp;Humidity;BMP_temperature;BMP_pressure;BME280_temperature;BME280_humidity;BME280_pressure;Samples;Min_cycle;Max_cycle;Signal;HPM_P1;HPM_P2
2023/10/25 00:00:37;;;;;;;;;;;;;;;20.94;57.64;100955.66;6245063;23;19907;-88
2023/10/25 00:03:02;;;;;;;;;;;;;;;20.94;57.71;100937.97;6243313;23;20672;-88
2023/10/25 00:05:32;;;;;;;;;;;;;;;20.91;57.68;100932.63;6218768;23;19938;-88
2023/10/25 00:07:57;;;;;;;;;;;;;;;20.92;57.77;100918.47;6244220;23;19907;-87
2023/10/25 00:10:23;;;;;;;;;;;;;;;20.93;57.64;100903.41;6243409;23;19914;-89
2023/10/25 00:12:48;;;;;;;;;;;;;;;20.91;57.64;100897.19;6218012;23;19908;-87
2023/10/25 00:15:13;;;;;;;;;;;;;;;20.90;57.81;100892.78;6245210;23;19915;-88
2023/10/25 00:17:40;;;;;;;;;;;;;;;20.88;57.75;100900.72;6218027;23;20411;-88
2023/10/25 00:20:06;;;;;;;;;;;;;;;20.91;57.66;100902.50;6216897;23;19987;-88
2023/10/25 00:22:31;;;;;;;;;;;;;;;20.92;57.73;100907.84;6244233;23;19912;-88
2023/10/25 00:24:56;;;;;;;;;;;;;;;20.92;57.74;100899.00;6243426;23;20270;-88
2023/10/25 00:27:22;;;;;;;;;;;;;;;20.87;57.78;100901.59;6215904;23;19915;-87
2023/10/25 00:29:47;;;;;;;;;;;;;;;20.88;57.73;100890.09;6218132;23;20339;-88
2023/10/25 00:32:16;;;;;;;;;;;;;;;20.88;57.77;100871.50;6217902;23;20405;-88
2023/10/25 00:34:42;;;;;;;;;;;;;;;20.90;57.83;100866.22;6217456;23;19907;-88
2023/10/25 00:37:07;;;;;;;;;;;;;;;20.90;57.77;100867.09;6217712;23;20343;-88
2023/10/25 00:39:33;;;;;;;;;;;;;;;20.84;57.75;100871.44;6244080;23;19916;-88
2023/10/25 00:41:58;;;;;;;;;;;;;;;20.84;57.91;100868.78;6242150;23;19908;-88
2023/10/25 00:44:24;;;;;;;;;;;;;;;20.89;57.87;100877.69;6215859;23;19911;-87
2023/10/25 00:46:49;;;;;;;;;;;;;;;20.84;57.86;100868.78;6242483;23;20358;-88
2023/10/25 00:49:14;;;;;;;;;;;;;;;20.85;57.92;100870.56;6215763;23;20332;-88
2023/10/25 00:51:40;;;;;;;;;;;;;;;20.86;57.75;100853.78;6216027;23;19912;-88
2023/10/25 00:54:05;;;;;;;;;;;;;;;20.86;57.83;100851.13;6243111;23;20354;-88
2023/10/25 00:56:32;;;;;;;;;;;;;;;20.84;57.86;100855.53;6243329;23;19990;-89
2023/10/25 00:58:58;;;;;;;;;;;;;;;20.89;57.52;100845.84;6242034;23;19997;-89
2023/10/25 01:01:23;;;;;;;;;;;;;;;20.83;57.80;100838.72;6216914;23;20310;-88
2023/10/25 01:03:49;;;;;;;;;;;;;;;20.84;57.94;100844.91;6217645;23;19911;-88
2023/10/25 01:06:18;;;;;;;;;;;;;;;20.82;57.84;100846.66;6243139;23;19908;-88
2023/10/25 01:08:43;;;;;;;;;;;;;;;20.81;57.86;100845.78;6243107;23;19919;-87
2023/10/25 01:11:09;;;;;;;;;;;;;;;20.78;57.94;100856.31;6217489;23;19933;-87
2023/10/25 01:13:34;;;;;;;;;;;;;;;20.79;57.92;100858.13;6217993;23;19914;-87
2023/10/25 01:15:59;;;;;;;;;;;;;;;20.81;57.74;100858.16;6242226;23;19908;-87
2023/10/25 01:18:25;;;;;;;;;;;;;;;20.83;57.64;100849.34;6242476;23;19916;-88
2023/10/25 01:20:50;;;;;;;;;;;;;;;20.83;57.82;100851.09;6243244;23;20263;-88
2023/10/25 01:23:16;;;;;;;;;;;;;;;20.81;57.56;100845.78;6243130;23;20462;-88
2023/10/25 01:25:42;;;;;;;;;;;;;;;20.81;57.67;100851.06;6244321;23;20267;-87
2023/10/25 01:28:07;;;;;;;;;;;;;;;20.76;57.72;100846.56;6242067;23;19915;-87
2023/10/25 01:30:33;;;;;;;;;;;;;;;20.77;57.76;100857.22;6242789;23;19908;-88
2023/10/25 01:32:58;;;;;;;;;;;;;;;20.80;57.89;100859.88;6217558;23;19918;-88
2023/10/25 01:35:24;;;;;;;;;;;;;;;20.79;57.91;100870.50;6242881;23;20322;-87
2023/10/25 01:37:49;;;;;;;;;;;;;;;20.74;57.98;100875.72;6242761;23;19907;-88
2023/10/25 01:40:15;;;;;;;;;;;;;;;20.77;57.84;100862.53;6243375;23;19908;-89
2023/10/25 01:42:41;;;;;;;;;;;;;;;20.73;57.88;100871.31;6242360;23;19919;-89
2023/10/25 01:45:07;;;;;;;;;;;;;;;20.73;57.89;100880.16;6242746;23;19909;-87
2023/10/25 01:47:32;;;;;;;;;;;;;;;20.71;57.92;100881.88;6242739;23;19916;-88
2023/10/25 01:49:58;;;;;;;;;;;;;;;20.73;57.86;100889.88;6216491;23;20337;-87
2023/10/25 01:52:23;;;;;;;;;;;;;;;20.76;57.89;100875.75;6217055;23;19907;-88
2023/10/25 01:54:50;;;;;;;;;;;;;;;20.71;57.99;100871.28;6243198;23;20335;-89
2023/10/25 01:57:16;;;;;;;;;;;;;;;20.71;57.86;100867.75;6244331;23;20107;-89
2023/10/25 01:59:41;;;;;;;;;;;;;;;20.71;57.93;100851.81;6241693;23;19907;-88
2023/10/25 02:02:09;;;;;;;;;;;;;;;20.69;58.08;100858.88;6216888;23;19986;-88
2023/10/25 02:04:35;;;;;;;;;;;;;;;20.63;58.17;100834.88;6243439;23;20298;-87
2023/10/25 02:07:02;;;;;;;;;;;;;;;20.66;58.07;100838.50;6218047;23;19907;-88
2023/10/25 02:09:28;;;;;;;;;;;;;;;20.67;58.03;100842.03;6246796;23;19946;-87
2023/10/25 02:11:54;;;;;;;;;;;;;;;20.67;58.03;100842.91;6252546;23;19915;-88
2023/10/25 02:14:19;;;;;;;;;;;;;;;20.71;58.04;100835.88;6228165;23;19908;-87
2023/10/25 02:16:45;;;;;;;;;;;;;;;20.68;57.93;100838.50;6247446;23;20337;-88
2023/10/25 02:19:10;;;;;;;;;;;;;;;20.65;57.88;100834.03;6244232;23;19907;-88
2023/10/25 02:21:36;;;;;;;;;;;;;;;20.65;58.09;100842.00;6218075;23;19954;-88
2023/10/25 02:24:02;;;;;;;;;;;;;;;20.64;58.06;100847.31;6217802;23;19912;-88
2023/10/25 02:26:27;;;;;;;;;;;;;;;20.67;57.93;100850.00;6242528;23;20263;-88
2023/10/25 02:28:53;;;;;;;;;;;;;;;20.62;58.09;100849.94;6244467;23;19919;-89
2023/10/25 02:31:18;;;;;;;;;;;;;;;20.62;58.00;100841.97;6244077;23;19978;-88
2023/10/25 02:33:43;;;;;;;;;;;;;;;20.62;58.13;100843.75;6244476;23;19915;-88
2023/10/25 02:36:09;;;;;;;;;;;;;;;20.62;58.01;100849.03;6219115;23;19907;-88
2023/10/25 02:38:34;;;;;;;;;;;;;;;20.62;58.17;100857.88;6218970;23;20002;-87
2023/10/25 02:41:00;;;;;;;;;;;;;;;20.64;58.00;100839.34;6215047;23;20339;-88
2023/10/25 02:43:25;;;;;;;;;;;;;;;20.64;58.01;100823.44;6241143;23;19941;-87
2023/10/25 02:45:52;;;;;;;;;;;;;;;20.63;58.03;100818.97;6242126;23;19965;-88
2023/10/25 02:48:18;;;;;;;;;;;;;;;20.59;58.10;100826.00;6243474;23;19911;-87
2023/10/25 02:50:43;;;;;;;;;;;;;;;20.57;58.24;100832.13;6218015;23;20343;-87
2023/10/25 02:53:09;;;;;;;;;;;;;;;20.58;58.06;100824.22;6243106;23;19907;-88
2023/10/25 02:55:47;;;;;;;;;;;;;;;20.62;58.00;100830.47;6242084;23;19912;-88
2023/10/25 02:58:13;;;;;;;;;;;;;;;20.54;58.23;100832.97;6239753;23;20006;-88
2023/10/25 03:00:39;;;;;;;;;;;;;;;20.58;58.03;100834.84;6212439;23;19939;-91
2023/10/25 03:03:26;;;;;;;;;;;;;;;20.57;58.04;100825.03;6216894;23;19995;-87
2023/10/25 03:05:52;;;;;;;;;;;;;;;20.59;58.01;100820.69;6218325;23;19962;-87
2023/10/25 03:08:20;;;;;;;;;;;;;;;20.54;58.14;100812.63;6241841;23;19912;-88
2023/10/25 03:10:46;;;;;;;;;;;;;;;20.53;58.07;100817.91;6214689;23;20420;-87
2023/10/25 03:13:11;;;;;;;;;;;;;;;20.55;58.02;100818.81;6243021;23;20368;-87
2023/10/25 03:15:37;;;;;;;;;;;;;;;20.53;58.14;100821.47;6242934;23;19961;-87
2023/10/25 03:18:02;;;;;;;;;;;;;;;20.55;58.05;100813.50;6241598;23;20339;-87
2023/10/25 03:20:28;;;;;;;;;;;;;;;20.51;57.93;100817.91;6244462;23;20262;-87
2023/10/25 03:22:53;;;;;;;;;;;;;;;20.50;58.10;100825.84;6217092;23;19916;-87
2023/10/25 03:25:19;;;;;;;;;;;;;;;20.47;58.27;100823.16;6242340;23;19908;-86
2023/10/25 03:27:45;;;;;;;;;;;;;;;20.46;58.24;100808.09;6211919;23;20344;-86
2023/10/25 03:30:10;;;;;;;;;;;;;;;20.48;58.27;100804.59;6212436;23;19919;-86
2023/10/25 03:32:36;;;;;;;;;;;;;;;20.50;58.13;100801.97;6214313;23;19911;-87
2023/10/25 03:35:02;;;;;;;;;;;;;;;20.44;58.37;100800.09;6213116;23;20288;-86
2023/10/25 03:37:27;;;;;;;;;;;;;;;20.49;58.07;100802.84;6212744;23;19908;-86
2023/10/25 03:39:53;;;;;;;;;;;;;;;20.52;57.97;100792.25;6212073;23;19962;-86
2023/10/25 03:42:18;;;;;;;;;;;;;;;20.50;58.10;100781.63;6187610;23;19946;-87
2023/10/25 03:44:44;;;;;;;;;;;;;;;20.49;58.13;100789.59;6212511;23;19915;-89
2023/10/25 03:47:10;;;;;;;;;;;;;;;20.52;57.92;100784.31;6211929;23;19939;-88
2023/10/25 03:49:37;;;;;;;;;;;;;;;20.53;58.11;100784.34;6212577;23;19908;-87
2023/10/25 03:52:02;;;;;;;;;;;;;;;20.51;58.06;100787.81;6213436;23;19915;-87
2023/10/25 03:54:28;;;;;;;;;;;;;;;20.49;58.10;100794.88;6186731;23;19908;-87
2023/10/25 03:56:53;;;;;;;;;;;;;;;20.44;58.49;100801.88;6212834;23;19908;-88
2023/10/25 03:59:19;;;;;;;;;;;;;;;20.39;58.45;100806.22;6212826;23;20484;-88
2023/10/25 04:01:44;;;;;;;;;;;;;;;20.40;58.21;100795.63;6213708;23;20390;-88
2023/10/25 04:04:11;;;;;;;;;;;;;;;20.45;58.20;100782.44;6211331;23;20340;-87
2023/10/25 04:06:37;;;;;;;;;;;;;;;20.43;58.19;100790.38;6214072;23;19915;-91
2023/10/25 04:09:02;;;;;;;;;;;;;;;20.41;58.16;100786.81;6212131;23;20233;-88
2023/10/25 04:11:28;;;;;;;;;;;;;;;20.39;58.45;100782.38;6212710;23;19908;-87
2023/10/25 04:13:53;;;;;;;;;;;;;;;20.44;58.21;100784.19;6212262;23;20304;-88
2023/10/25 04:16:19;;;;;;;;;;;;;;;20.38;58.39;100791.16;6212312;23;19966;-87
2023/10/25 04:18:44;;;;;;;;;;;;;;;20.40;58.18;100790.31;6210893;23;19931;-87
2023/10/25 04:21:11;;;;;;;;;;;;;;;20.41;58.10;100794.78;6210690;23;20269;-87
2023/10/25 04:23:36;;;;;;;;;;;;;;;20.41;58.30;100792.13;6186065;23;20021;-88
2023/10/25 04:26:08;;;;;;;;;;;;;;;20.35;58.39;100797.34;6185992;23;19908;-90
2023/10/25 04:28:34;;;;;;;;;;;;;;;20.34;58.33;100803.53;6164259;23;19924;-87
2023/10/25 04:31:25;;;;;;;;;;;;;;;20.35;58.18;100797.34;6182045;23;19915;-88
2023/10/25 04:33:51;;;;;;;;;;;;;;;20.34;58.25;100782.31;6181668;23;19915;-88
2023/10/25 04:36:16;;;;;;;;;;;;;;;20.34;58.35;100785.84;6181852;23;19917;-86
2023/10/25 04:38:54;;;;;;;;;;;;;;;20.35;58.27;100778.75;6182467;23;19914;-85
2023/10/25 04:41:38;;;;;;;;;;;;;;;20.31;58.42;100764.56;6182630;23;19908;-86
2023/10/25 04:44:33;;;;;;;;;;;;;;;20.30;58.36;100770.75;6204493;23;20260;-86
2023/10/25 04:46:59;;;;;;;;;;;;;;;20.29;58.47;100771.59;6181312;23;19916;-85
2023/10/25 04:49:28;;;;;;;;;;;;;;;20.24;58.47;100765.34;6155925;23;19986;-85
2023/10/25 04:55:01;;;;;;;;;;;;;;;20.25;58.44;100767.13;6179311;23;19960;-88
2023/10/25 04:57:27;;;;;;;;;;;;;;;20.29;58.50;100765.41;6180345;23;20305;-89
2023/10/25 05:00:03;;;;;;;;;;;;;;;20.31;58.27;100768.97;6180648;23;19987;-86
2023/10/25 05:02:40;;;;;;;;;;;;;;;20.28;58.31;100768.94;6183222;23;19913;-88
2023/10/25 05:05:28;;;;;;;;;;;;;;;20.30;58.54;100764.56;6180359;23;20399;-87
2023/10/25 05:07:53;;;;;;;;;;;;;;;20.32;58.22;100771.66;6173458;23;20308;-87
2023/10/25 05:10:19;;;;;;;;;;;;;;;20.24;58.61;100780.38;6180145;23;19946;-87
2023/10/25 05:13:03;;;;;;;;;;;;;;;20.27;58.37;100776.00;6183694;23;19908;-90
2023/10/25 05:15:35;;;;;;;;;;;;;;;20.29;58.48;100773.38;6183243;23;19998;-89
2023/10/25 05:18:23;;;;;;;;;;;;;;;20.30;58.42;100776.06;6180894;23;19916;-89
2023/10/25 05:20:50;;;;;;;;;;;;;;;20.25;58.52;100768.88;6183587;23;19958;-88
2023/10/25 05:23:21;;;;;;;;;;;;;;;20.25;58.38;100776.84;6182199;23;19922;-88
2023/10/25 05:25:47;;;;;;;;;;;;;;;20.27;58.48;100767.16;6181803;23;19914;-90
2023/10/25 05:28:17;;;;;;;;;;;;;;;20.29;58.29;100766.28;6200343;23;19926;-90
2023/10/25 05:30:42;;;;;;;;;;;;;;;20.25;58.63;100776.84;6212084;23;19983;-91
2023/10/25 05:33:08;;;;;;;;;;;;;;;20.21;58.69;100775.91;6187922;23;19938;-90
2023/10/25 05:35:34;;;;;;;;;;;;;;;20.26;58.46;100768.03;6188775;23;20347;-91
2023/10/25 05:38:04;;;;;;;;;;;;;;;20.22;58.63;100775.06;6186254;23;19912;-89
2023/10/25 05:40:37;;;;;;;;;;;;;;;20.21;58.71;100783.84;6209782;23;19928;-91
2023/10/25 05:43:04;;;;;;;;;;;;;;;20.23;58.48;100790.06;6186650;23;19935;-91
2023/10/25 05:45:31;;;;;;;;;;;;;;;20.19;58.75;100777.63;6187198;23;19915;-90
2023/10/25 05:47:58;;;;;;;;;;;;;;;20.24;58.38;100769.78;6188870;23;19912;-91
2023/10/25 05:50:27;;;;;;;;;;;;;;;20.22;58.26;100775.06;6188254;23;19912;-90
2023/10/25 05:52:53;;;;;;;;;;;;;;;20.24;58.85;100785.69;6187936;23;19915;-89
2023/10/25 05:55:20;;;;;;;;;;;;;;;20.23;58.55;100779.47;6185642;23;19951;-91
2023/10/25 05:57:45;;;;;;;;;;;;;;;20.21;58.58;100783.84;6185445;23;19908;-88
2023/10/25 06:00:12;;;;;;;;;;;;;;;20.20;58.73;100787.38;6212447;23;19986;-90
2023/10/25 06:02:38;;;;;;;;;;;;;;;20.23;58.45;100786.53;6188445;23;19938;-89
2023/10/25 06:05:04;;;;;;;;;;;;;;;20.20;58.74;100787.38;6188431;23;20340;-88
2023/10/25 06:07:29;;;;;;;;;;;;;;;20.21;58.58;100775.00;6189237;23;19912;-89
2023/10/25 06:09:55;;;;;;;;;;;;;;;20.23;58.63;100763.56;6214317;23;19908;-91
2023/10/25 06:12:55;;;;;;;;;;;;;;;20.20;58.48;100763.53;6216416;23;19916;-90
2023/10/25 06:21:32;;;;;;;;;;;;;;;20.18;58.74;100773.22;6217582;23;20359;-90
2023/10/25 06:23:59;;;;;;;;;;;;;;;20.21;58.71;100761.75;6215305;23;20262;-90
2023/10/25 06:26:24;;;;;;;;;;;;;;;20.17;58.95;100767.88;6190290;23;20332;-90
2023/10/25 06:28:54;;;;;;;;;;;;;;;20.18;58.79;100767.03;6162268;23;19916;-90
2023/10/25 06:31:35;;;;;;;;;;;;;;;20.21;58.65;100757.34;6185010;23;19915;-91
2023/10/25 06:34:02;;;;;;;;;;;;;;;20.22;58.89;100750.31;6182374;23;19908;-89
2023/10/25 06:37:02;;;;;;;;;;;;;;;20.21;58.79;100745.84;6161333;23;19923;-91
2023/10/25 06:39:46;;;;;;;;;;;;;;;20.19;58.68;100747.59;6187104;23;19955;-90
2023/10/25 06:45:35;;;;;;;;;;;;;;;20.18;58.93;100756.44;6187016;23;20320;-91
2023/10/25 06:51:28;;;;;;;;;;;;;;;20.15;59.03;100751.97;6192714;23;19908;-89
2023/10/25 06:54:24;;;;;;;;;;;;;;;20.21;59.06;100756.47;6194126;23;19956;-90
2023/10/25 06:56:55;;;;;;;;;;;;;;;20.17;59.27;100767.88;6182475;23;19943;-86
2023/10/25 06:59:23;;;;;;;;;;;;;;;20.20;59.18;100763.53;6181572;23;19908;-87
2023/10/25 07:01:52;;;;;;;;;;;;;;;20.20;59.05;100752.03;6184506;23;19909;-85
2023/10/25 07:04:18;;;;;;;;;;;;;;;20.22;59.01;100734.38;6156289;23;20368;-85
2023/10/25 07:06:44;;;;;;;;;;;;;;;20.25;59.01;100747.69;6179693;23;19916;-86
2023/10/25 07:09:31;;;;;;;;;;;;;;;20.20;59.27;100744.97;6182617;23;19923;-85
2023/10/25 07:11:57;;;;;;;;;;;;;;;20.26;58.85;100737.09;6185122;23;19991;-87
2023/10/25 07:14:23;;;;;;;;;;;;;;;20.17;59.05;100725.47;6185107;23;19912;-86
2023/10/25 07:16:49;;;;;;;;;;;;;;;20.18;59.14;100712.22;6184534;23;19908;-86
2023/10/25 07:19:14;;;;;;;;;;;;;;;20.19;59.17;100710.47;6185768;23;19916;-86
2023/10/25 07:21:40;;;;;;;;;;;;;;;20.21;59.48;100706.97;6184445;23;20336;-85
2023/10/25 07:24:07;;;;;;;;;;;;;;;20.21;59.08;100704.31;6158940;23;19919;-85
2023/10/25 07:26:32;;;;;;;;;;;;;;;20.24;59.19;100712.31;6183272;23;19912;-85
2023/10/25 07:29:06;;;;;;;;;;;;;;;20.23;59.42;100721.13;6242815;23;20306;-85
2023/10/25 07:31:32;;;;;;;;;;;;;;;20.26;59.30;100709.69;6222370;23;19907;-85
2023/10/25 07:33:57;;;;;;;;;;;;;;;20.23;59.25;100728.19;6221223;23;20335;-86
2023/10/25 07:36:24;;;;;;;;;;;;;;;20.22;59.61;100732.63;6220268;23;19918;-84
2023/10/25 07:38:49;;;;;;;;;;;;;;;20.27;59.10;100735.34;6247111;23;19914;-85
2023/10/25 07:41:15;;;;;;;;;;;;;;;20.23;59.34;100739.69;6248335;23;19907;-85
2023/10/25 07:43:40;;;;;;;;;;;;;;;20.25;59.27;100732.66;6247947;23;20462;-85
2023/10/25 07:46:06;;;;;;;;;;;;;;;20.24;59.09;100728.22;6248822;23;20266;-85
2023/10/25 07:48:31;;;;;;;;;;;;;;;20.22;59.08;100732.63;6247242;23;20305;-85
2023/10/25 07:51:04;;;;;;;;;;;;;;;20.22;59.10;100745.88;6221905;23;19912;-84
2023/10/25 07:53:30;;;;;;;;;;;;;;;20.22;59.21;100740.56;6219738;23;19908;-84
2023/10/25 07:55:55;;;;;;;;;;;;;;;20.25;59.13;100747.69;6220175;23;20305;-86
2023/10/25 07:58:22;;;;;;;;;;;;;;;20.24;59.14;100752.09;6244580;23;19908;-84
2023/10/25 08:00:50;;;;;;;;;;;;;;;20.29;59.17;100742.44;6222500;23;19919;-86
2023/10/25 08:03:17;;;;;;;;;;;;;;;20.29;58.82;100746.84;6221289;23;19911;-86
2023/10/25 08:05:44;;;;;;;;;;;;;;;20.26;59.25;100754.78;6247194;23;19949;-86
2023/10/25 08:08:10;;;;;;;;;;;;;;;20.27;58.84;100752.13;6247979;23;19908;-86
2023/10/25 08:10:35;;;;;;;;;;;;;;;20.28;58.87;100753.94;6245613;23;19908;-87
2023/10/25 08:13:00;;;;;;;;;;;;;;;20.31;58.59;100756.59;6245789;23;19907;-87
2023/10/25 08:15:26;;;;;;;;;;;;;;;20.31;58.88;100734.50;6243877;23;19911;-84
2023/10/25 08:17:54;;;;;;;;;;;;;;;20.33;58.73;100733.66;6218566;23;20336;-84
2023/10/25 08:20:20;;;;;;;;;;;;;;;20.31;58.96;100731.84;6244556;23;19915;-85
2023/10/25 08:22:45;;;;;;;;;;;;;;;20.31;59.21;100721.25;6245238;23;19911;-88
2023/10/25 08:25:11;;;;;;;;;;;;;;;20.25;60.15;100730.00;6244938;23;20393;-87
2023/10/25 08:27:36;;;;;;;;;;;;;;;20.29;59.66;100737.13;6244374;23;19923;-87
2023/10/25 08:30:03;;;;;;;;;;;;;;;20.22;59.97;100742.34;6240038;23;19907;-87
2023/10/25 08:32:28;;;;;;;;;;;;;;;20.28;59.78;100745.97;6241529;23;20486;-86
2023/10/25 08:34:54;;;;;;;;;;;;;;;20.26;60.12;100753.00;6243858;23;19950;-85
2023/10/25 08:37:19;;;;;;;;;;;;;;;20.28;59.84;100740.66;6241337;23;19919;-85
2023/10/25 08:39:45;;;;;;;;;;;;;;;20.33;59.40;100740.72;6243125;23;19982;-86
2023/10/25 08:42:11;;;;;;;;;;;;;;;20.21;61.91;100725.53;6243306;23;20490;-86
2023/10/25 08:44:39;;;;;;;;;;;;;;;20.16;61.20;100721.94;6243109;23;19911;-87
2023/10/25 08:47:05;;;;;;;;;;;;;;;20.16;61.58;100716.63;6217997;23;20391;-86
2023/10/25 08:49:30;;;;;;;;;;;;;;;20.19;61.03;100703.41;6243464;23;19970;-87
2023/10/25 08:51:55;;;;;;;;;;;;;;;20.23;60.88;100710.53;6243428;23;20306;-87
2023/10/25 08:54:24;;;;;;;;;;;;;;;20.22;61.07;100695.50;6217390;23;20396;-87
2023/10/25 08:56:49;;;;;;;;;;;;;;;20.20;60.97;100691.94;6244690;23;19911;-87
2023/10/25 08:59:15;;;;;;;;;;;;;;;20.21;61.16;100685.75;6217729;23;20339;-86
2023/10/25 09:01:44;;;;;;;;;;;;;;;20.21;60.87;100683.09;6243006;23;19962;-86
2023/10/25 09:04:09;;;;;;;;;;;;;;;20.20;61.38;100683.97;6244280;23;19911;-84
2023/10/25 09:06:35;;;;;;;;;;;;;;;20.19;61.28;100690.13;6243878;23;19930;-85
2023/10/25 09:09:05;;;;;;;;;;;;;;;20.20;61.09;100683.09;6244070;23;19942;-86
2023/10/25 09:11:57;;;;;;;;;;;;;;;20.22;61.51;100657.50;6242624;23;19918;-86
2023/10/25 09:14:22;;;;;;;;;;;;;;;20.20;61.20;100648.63;6238185;23;19965;-85
2023/10/25 09:16:48;;;;;;;;;;;;;;;20.19;60.97;100642.41;6242958;23;19912;-87
2023/10/25 09:19:18;;;;;;;;;;;;;;;20.16;61.23;100660.06;6244518;23;20339;-85
2023/10/25 09:21:43;;;;;;;;;;;;;;;20.19;61.19;100652.13;6217815;23;19911;-84
2023/10/25 09:24:09;;;;;;;;;;;;;;;20.22;61.17;100652.19;6243483;23;19918;-84
2023/10/25 09:26:39;;;;;;;;;;;;;;;20.19;61.17;100647.72;6217509;23;19990;-84
2023/10/25 09:29:05;;;;;;;;;;;;;;;20.20;61.26;100654.81;6242454;23;20344;-85
2023/10/25 09:31:31;;;;;;;;;;;;;;;20.19;61.91;100653.00;6242769;23;20037;-85
2023/10/25 09:33:57;;;;;;;;;;;;;;;20.21;61.53;100653.94;6242990;23;20262;-86
2023/10/25 09:36:22;;;;;;;;;;;;;;;20.21;61.59;100647.75;6217058;23;19908;-85
2023/10/25 09:38:51;;;;;;;;;;;;;;;20.16;62.31;100655.66;6239353;23;19907;-86
2023/10/25 09:41:17;;;;;;;;;;;;;;;20.18;62.54;100650.38;6215208;23;19911;-86
2023/10/25 09:43:50;;;;;;;;;;;;;;;20.19;62.44;100655.66;6215055;23;19918;-87
2023/10/25 09:46:30;;;;;;;;;;;;;;;20.18;62.76;100645.06;6241399;23;19958;-84
2023/10/25 09:49:11;;;;;;;;;;;;;;;20.22;61.86;100641.59;6241768;23;20313;-85
2023/10/25 09:51:36;;;;;;;;;;;;;;;20.20;62.03;100628.31;6240149;23;19916;-87
2023/10/25 09:54:23;;;;;;;;;;;;;;;20.19;61.99;100617.66;6215167;23;19990;-85
2023/10/25 09:56:50;;;;;;;;;;;;;;;20.21;62.85;100615.94;6242614;23;20272;-85
2023/10/25 09:59:18;;;;;;;;;;;;;;;20.22;61.73;100610.66;6242317;23;19914;-85
2023/10/25 10:01:45;;;;;;;;;;;;;;;20.21;62.21;100592.94;6242990;23;19912;-85
2023/10/25 10:04:15;;;;;;;;;;;;;;;20.21;62.30;100592.94;6215964;23;20382;-85
2023/10/25 10:06:47;;;;;;;;;;;;;;;20.21;62.47;100587.63;6215346;23;20312;-85
2023/10/25 10:09:19;;;;;;;;;;;;;;;20.24;62.45;100579.75;6243027;23;19986;-84
2023/10/25 10:11:48;;;;;;;;;;;;;;;20.22;62.89;100575.28;6215817;23;19994;-85
2023/10/25 10:14:29;;;;;;;;;;;;;;;20.23;62.78;100575.28;6241231;23;20010;-86
2023/10/25 10:16:59;;;;;;;;;;;;;;;20.26;62.44;100579.75;6241571;23;20399;-87
2023/10/25 10:19:25;;;;;;;;;;;;;;;20.26;62.47;100567.38;6216313;23;20244;-87
2023/10/25 10:22:01;;;;;;;;;;;;;;;20.29;62.89;100569.19;6240704;23;19914;-86
2023/10/25 10:24:45;;;;;;;;;;;;;;;20.36;64.53;100568.34;6241196;23;20041;-89
2023/10/25 10:27:12;;;;;;;;;;;;;;;20.48;62.69;100573.81;6242227;23;20308;-86
2023/10/25 10:29:39;;;;;;;;;;;;;;;20.47;62.87;100571.16;6241511;23;19918;-86
2023/10/25 10:32:05;;;;;;;;;;;;;;;20.56;62.73;100567.69;6239417;23;19911;-87
2023/10/25 10:34:37;;;;;;;;;;;;;;;20.59;62.69;100570.41;6238421;23;20435;-86
2023/10/25 10:37:07;;;;;;;;;;;;;;;20.48;63.06;100557.00;6240594;23;20359;-86
2023/10/25 10:39:33;;;;;;;;;;;;;;;20.46;63.12;100569.34;6238582;23;19914;-85
2023/10/25 10:42:01;;;;;;;;;;;;;;;20.47;62.80;100553.47;6213020;23;20267;-86
2023/10/25 10:44:27;;;;;;;;;;;;;;;20.42;62.85;100536.59;6242475;23;20415;-93
2023/10/25 10:47:05;;;;;;;;;;;;;;;20.42;62.80;100546.31;6220344;23;20264;-92
2023/10/25 10:49:31;;;;;;;;;;;;;;;20.48;62.56;100551.69;6220720;23;19914;-92
2023/10/25 10:52:03;;;;;;;;;;;;;;;20.41;62.56;100545.44;6245715;23;20271;-90
2023/10/25 10:54:33;;;;;;;;;;;;;;;20.46;62.44;100549.03;6246136;23;19907;-91
2023/10/25 10:56:59;;;;;;;;;;;;;;;20.50;62.33;100549.94;6246179;23;19961;-93
2023/10/25 10:59:29;;;;;;;;;;;;;;;20.50;62.15;100539.34;6219780;23;19907;-92
2023/10/25 11:01:55;;;;;;;;;;;;;;;20.62;61.82;100547.47;6220799;23;19907;-91
2023/10/25 11:04:21;;;;;;;;;;;;;;;20.64;61.57;100553.66;6220641;23;19912;-91
2023/10/25 11:06:47;;;;;;;;;;;;;;;20.67;61.51;100555.44;6220835;23;19931;-91
2023/10/25 11:09:13;;;;;;;;;;;;;;;20.63;61.45;100551.88;6220332;23;19997;-92
2023/10/25 11:11:42;;;;;;;;;;;;;;;20.65;61.66;100550.13;6220486;23;19939;-91
2023/10/25 11:14:10;;;;;;;;;;;;;;;20.67;61.29;100552.81;6220919;23;19907;-91
2023/10/25 11:16:37;;;;;;;;;;;;;;;20.60;61.60;100546.56;6246730;23;19934;-92
2023/10/25 11:19:13;;;;;;;;;;;;;;;20.77;61.05;100541.41;6220476;23;19914;-91
2023/10/25 11:21:39;;;;;;;;;;;;;;;20.73;61.15;100543.13;6221771;23;19912;-92
2023/10/25 11:24:14;;;;;;;;;;;;;;;20.70;61.13;100531.59;6220568;23;19934;-92
2023/10/25 11:26:40;;;;;;;;;;;;;;;20.88;60.57;100526.44;6220806;23;19930;-94
2023/10/25 11:29:15;;;;;;;;;;;;;;;20.78;60.84;100536.97;6220546;23;19915;-92
2023/10/25 11:31:42;;;;;;;;;;;;;;;20.83;60.69;100524.66;6219840;23;19914;-91
2023/10/25 11:34:09;;;;;;;;;;;;;;;20.81;60.60;100524.63;6220971;23;19912;-91
2023/10/25 11:36:37;;;;;;;;;;;;;;;20.87;60.45;100514.06;6221731;23;19961;-92
2023/10/25 11:39:11;;;;;;;;;;;;;;;20.87;60.72;100519.38;6220586;23;19907;-93
2023/10/25 11:41:38;;;;;;;;;;;;;;;20.82;60.57;100513.13;6221365;23;19968;-91
2023/10/25 11:44:09;;;;;;;;;;;;;;;20.81;60.75;100507.81;6220575;23;19911;-91
2023/10/25 11:46:44;;;;;;;;;;;;;;;20.72;61.22;100513.91;6220566;23;19907;-92
2023/10/25 11:49:19;;;;;;;;;;;;;;;20.79;60.89;100514.88;6221245;23;19999;-92
2023/10/25 11:51:54;;;;;;;;;;;;;;;20.88;60.34;100513.16;6246004;23;19918;-93
2023/10/25 11:54:31;;;;;;;;;;;;;;;20.84;60.65;100499.88;6220816;23;19939;-92
2023/10/25 11:57:08;;;;;;;;;;;;;;;20.96;60.05;100499.09;6220562;23;19958;-91
2023/10/25 11:59:34;;;;;;;;;;;;;;;20.85;60.83;100491.00;6220259;23;19907;-91
2023/10/25 12:02:00;;;;;;;;;;;;;;;20.83;60.78;100499.00;6219758;23;20232;-92
2023/10/25 12:04:28;;;;;;;;;;;;;;;20.81;60.82;100482.16;6220421;23;19958;-92
2023/10/25 12:06:55;;;;;;;;;;;;;;;20.65;61.36;100485.56;6220826;23;19908;-92
2023/10/25 12:09:24;;;;;;;;;;;;;;;20.73;61.27;100491.81;6220512;23;19907;-92
2023/10/25 12:11:57;;;;;;;;;;;;;;;20.92;60.64;100492.84;6220970;23;19907;-92
2023/10/25 12:14:26;;;;;;;;;;;;;;;20.89;60.77;100496.38;6220602;23;19907;-92
2023/10/25 12:17:05;;;;;;;;;;;;;;;20.86;60.85;100503.44;6220633;23;20263;-92
2023/10/25 12:19:35;;;;;;;;;;;;;;;20.88;60.89;100499.91;6220274;23;19915;-92
2023/10/25 12:22:36;;;;;;;;;;;;;;;20.97;60.58;100500.84;6220352;23;19908;-92
2023/10/25 12:25:19;;;;;;;;;;;;;;;20.90;60.62;100503.44;6220790;23;20332;-93
2023/10/25 12:27:45;;;;;;;;;;;;;;;20.94;60.62;100504.38;6214473;23;19999;-93
2023/10/25 12:30:20;;;;;;;;;;;;;;;20.94;60.50;100501.72;6220850;23;20237;-92
2023/10/25 12:32:50;;;;;;;;;;;;;;;20.92;60.80;100511.44;6219572;23;19912;-93
2023/10/25 12:35:21;;;;;;;;;;;;;;;20.87;61.08;100518.47;6220360;23;19912;-93
2023/10/25 12:37:51;;;;;;;;;;;;;;;20.96;60.80;100510.59;6220676;23;19915;-93
2023/10/25 12:40:21;;;;;;;;;;;;;;;20.97;61.12;100519.44;6220723;23;19915;-93
2023/10/25 12:42:48;;;;;;;;;;;;;;;20.97;61.31;100508.81;6220605;23;20000;-93
2023/10/25 12:45:14;;;;;;;;;;;;;;;20.90;61.72;100514.06;6244663;23;19918;-91
2023/10/25 12:47:40;;;;;;;;;;;;;;;20.84;61.71;100502.53;6220398;23;19943;-91
2023/10/25 12:50:12;;;;;;;;;;;;;;;20.89;61.71;100508.75;6220849;23;19915;-91
2023/10/25 12:52:49;;;;;;;;;;;;;;;20.88;61.38;100502.56;6221279;23;19907;-92
2023/10/25 12:55:16;;;;;;;;;;;;;;;20.91;61.52;100512.28;6220593;23;19930;-92
2023/10/25 12:57:42;;;;;;;;;;;;;;;20.87;61.60;100500.78;6220426;23;19907;-92